createdAt,value
2023-02-14T00:01:39.848Z,2.60
2023-02-14T00:04:12.110Z,2.62
2023-02-14T00:06:44.284Z,2.60
2023-02-14T00:09:18.838Z,2.58
2023-02-14T00:11:51.891Z,2.58
2023-02-14T00:14:43.552Z,2.59
2023-02-14T00:17:15.624Z,2.59
2023-02-14T00:19:47.864Z,2.61
2023-02-14T00:22:19.776Z,2.58
2023-02-14T00:24:51.982Z,2.61
2023-02-14T00:27:24.173Z,2.61
2023-02-14T00:29:58.521Z,2.62
2023-02-14T00:32:31.013Z,2.60
2023-02-14T00:35:03.871Z,2.62
2023-02-14T00:37:35.755Z,2.65
2023-02-14T00:40:10.343Z,2.60
2023-02-14T00:42:44.706Z,2.64
2023-02-14T00:45:19.281Z,2.63
2023-02-14T00:47:51.682Z,2.63
2023-02-14T00:50:23.923Z,2.55
2023-02-14T00:52:58.173Z,2.60
2023-02-14T00:55:30.722Z,2.56
2023-02-14T00:58:02.746Z,2.57
2023-02-14T01:00:35.110Z,2.53
2023-02-14T01:03:07.722Z,2.52
2023-02-14T01:05:40.005Z,2.54
2023-02-14T01:08:11.965Z,2.52
2023-02-14T01:10:45.023Z,2.54
2023-02-14T01:13:17.693Z,2.52
2023-02-14T01:15:52.003Z,2.51
2023-02-14T01:18:24.240Z,2.52
2023-02-14T01:21:16.292Z,2.52
2023-02-14T01:23:50.641Z,2.51
2023-02-14T01:26:25.382Z,2.49
2023-02-14T01:28:57.983Z,2.46
2023-02-14T01:31:32.376Z,2.48
2023-02-14T01:34:05.233Z,2.43
2023-02-14T01:36:40.542Z,2.45
2023-02-14T01:39:15.974Z,2.45
2023-02-14T01:41:51.305Z,2.45
2023-02-14T01:44:58.182Z,2.43
2023-02-14T01:47:34.259Z,2.37
2023-02-14T01:50:12.590Z,2.36
2023-02-14T01:52:49.286Z,2.40
2023-02-14T01:55:25.616Z,2.42
2023-02-14T01:58:04.814Z,2.42
2023-02-14T02:04:28.415Z,2.40
2023-02-14T02:07:08.084Z,2.39
2023-02-14T02:09:46.531Z,2.41
2023-02-14T02:12:19.220Z,2.40
2023-02-14T02:14:56.000Z,2.42
2023-02-14T02:17:36.339Z,2.40
2023-02-14T02:20:38.965Z,2.41
2023-02-14T02:23:59.234Z,2.43
2023-02-14T02:27:06.749Z,2.39
2023-02-14T02:30:11.817Z,2.38
2023-02-14T02:33:21.674Z,2.37
2023-02-14T02:36:17.236Z,2.34
2023-02-14T02:39:06.576Z,2.33
2023-02-14T02:41:50.997Z,2.35
2023-02-14T02:44:32.035Z,2.35
2023-02-14T02:47:10.957Z,2.34
2023-02-14T02:50:11.316Z,2.32
2023-02-14T02:53:06.635Z,2.37
2023-02-14T02:56:03.800Z,2.40
2023-02-14T02:58:41.525Z,2.44
2023-02-14T03:01:20.786Z,2.46
2023-02-14T03:04:17.618Z,2.47
2023-02-14T03:06:52.680Z,2.45
2023-02-14T03:09:57.086Z,2.45
2023-02-14T03:12:51.715Z,2.46
2023-02-14T03:15:40.427Z,2.42
2023-02-14T03:18:43.389Z,2.38
2023-02-14T03:21:27.772Z,2.40
2023-02-14T03:24:07.459Z,2.39
2023-02-14T03:26:49.570Z,2.40
2023-02-14T03:29:32.299Z,2.41
2023-02-14T03:32:13.643Z,2.44
2023-02-14T03:34:54.997Z,2.43
2023-02-14T03:37:34.976Z,2.42
2023-02-14T03:40:15.806Z,2.44
2023-02-14T03:42:54.896Z,2.42
2023-02-14T03:45:32.111Z,2.38
2023-02-14T03:48:11.335Z,2.36
2023-02-14T03:50:47.770Z,2.37
2023-02-14T03:53:24.719Z,2.39
2023-02-14T03:56:04.160Z,2.36
2023-02-14T03:58:41.009Z,2.38
2023-02-14T04:01:18.192Z,2.35
2023-02-14T04:03:52.216Z,2.35
2023-02-14T04:06:25.500Z,2.35
2023-02-14T04:08:58.513Z,2.35
2023-02-14T04:11:35.428Z,2.32
2023-02-14T04:14:08.517Z,2.29
2023-02-14T04:16:54.881Z,2.33
2023-02-14T04:19:27.605Z,2.34
2023-02-14T04:22:00.434Z,2.34
2023-02-14T04:24:33.039Z,2.34
2023-02-14T04:27:11.895Z,2.35
2023-02-14T04:29:47.059Z,2.36
2023-02-14T04:32:22.105Z,2.36
2023-02-14T04:34:54.912Z,2.38
2023-02-14T04:37:28.284Z,2.35
2023-02-14T04:40:00.952Z,2.33
2023-02-14T04:42:33.743Z,2.34
2023-02-14T04:45:06.584Z,2.35
2023-02-14T04:47:39.583Z,2.34
2023-02-14T04:50:14.137Z,2.32
2023-02-14T04:52:46.953Z,2.31
2023-02-14T04:55:20.025Z,2.33
2023-02-14T04:57:53.173Z,2.33
2023-02-14T05:00:26.457Z,2.31
2023-02-14T05:02:59.412Z,2.30
2023-02-14T05:05:32.000Z,2.29
2023-02-14T05:08:04.832Z,2.26
2023-02-14T05:10:37.551Z,2.23
2023-02-14T05:13:10.622Z,2.23
2023-02-14T05:15:43.387Z,2.23
2023-02-14T05:18:16.116Z,2.22
2023-02-14T05:20:50.860Z,2.22
2023-02-14T05:23:24.411Z,2.26
2023-02-14T05:25:57.002Z,2.27
2023-02-14T05:28:30.140Z,2.26
2023-02-14T05:31:03.423Z,2.27
2023-02-14T05:33:36.125Z,2.30
2023-02-14T05:36:10.000Z,2.29
2023-02-14T05:38:42.800Z,2.29
2023-02-14T05:41:15.450Z,2.30
2023-02-14T05:43:48.164Z,2.31
2023-02-14T05:46:20.926Z,2.31
2023-02-14T05:48:55.190Z,2.29
2023-02-14T05:51:28.070Z,2.28
2023-02-14T05:54:01.702Z,2.31
2023-02-14T05:56:34.409Z,2.32
2023-02-14T05:59:07.111Z,2.31
2023-02-14T06:01:39.798Z,2.30
2023-02-14T06:04:12.571Z,2.25
2023-02-14T06:06:45.198Z,2.28
2023-02-14T06:09:20.124Z,2.32
2023-02-14T06:11:55.191Z,2.34
2023-02-14T06:14:28.343Z,2.35
2023-02-14T06:17:03.309Z,2.38
2023-02-14T06:19:36.717Z,2.40
2023-02-14T06:22:09.823Z,2.41
2023-02-14T06:24:42.662Z,2.40
2023-02-14T06:27:16.348Z,2.40
2023-02-14T06:29:49.258Z,2.43
2023-02-14T06:32:22.129Z,2.45
2023-02-14T06:34:55.389Z,2.43
2023-02-14T06:37:28.526Z,2.44
2023-02-14T06:40:02.050Z,2.45
2023-02-14T06:42:34.617Z,2.48
2023-02-14T06:45:08.380Z,2.48
2023-02-14T06:47:41.118Z,2.42
2023-02-14T06:50:14.875Z,2.46
2023-02-14T06:52:47.901Z,2.46
2023-02-14T06:55:21.370Z,2.46
2023-02-14T06:57:56.487Z,2.44
2023-02-14T07:00:29.457Z,2.44
2023-02-14T07:03:02.366Z,2.46
2023-02-14T07:05:35.357Z,2.50
2023-02-14T07:08:08.916Z,2.53
2023-02-14T07:10:42.036Z,2.53
2023-02-14T07:13:15.456Z,2.55
2023-02-14T07:15:48.988Z,2.60
2023-02-14T07:18:21.976Z,2.59
2023-02-14T07:20:54.936Z,2.63
2023-02-14T07:23:27.981Z,2.63
2023-02-14T07:26:01.409Z,2.67
2023-02-14T07:28:34.098Z,2.72
2023-02-14T07:31:10.309Z,2.74
2023-02-14T07:33:43.102Z,2.79
2023-02-14T07:36:18.188Z,2.81
2023-02-14T07:38:52.368Z,2.82
2023-02-14T07:41:25.517Z,2.85
2023-02-14T07:43:58.472Z,2.85
2023-02-14T07:46:31.687Z,2.89
2023-02-14T07:49:04.646Z,2.89
2023-02-14T07:51:37.649Z,2.92
2023-02-14T07:54:10.313Z,2.93
2023-02-14T07:56:43.040Z,2.94
2023-02-14T07:59:16.135Z,2.96
2023-02-14T08:01:51.602Z,3.00
2023-02-14T08:04:28.642Z,3.03
2023-02-14T08:07:01.556Z,3.08
2023-02-14T08:09:34.801Z,3.15
2023-02-14T08:12:25.772Z,3.20
2023-02-14T08:15:21.697Z,3.26
2023-02-14T08:17:54.681Z,3.29
2023-02-14T08:20:27.658Z,3.33
2023-02-14T08:23:01.129Z,3.38
2023-02-14T08:25:35.007Z,3.41
2023-02-14T08:28:08.910Z,3.45
2023-02-14T08:30:42.584Z,3.52
2023-02-14T08:33:15.595Z,3.52
2023-02-14T08:35:48.606Z,3.61
2023-02-14T08:38:21.452Z,3.58
2023-02-14T08:40:54.478Z,3.64
2023-02-14T08:43:27.409Z,3.64
2023-02-14T08:46:00.347Z,3.66
2023-02-14T08:48:33.398Z,3.71
2023-02-14T08:51:11.195Z,3.74
2023-02-14T08:53:45.304Z,3.81
2023-02-14T08:56:18.381Z,3.84
2023-02-14T08:58:56.259Z,3.94
2023-02-14T09:01:29.496Z,4.01
2023-02-14T09:04:04.415Z,4.05
2023-02-14T09:06:38.949Z,4.09
2023-02-14T09:09:11.883Z,4.09
2023-02-14T09:11:44.672Z,4.17
2023-02-14T09:14:19.076Z,4.23
2023-02-14T09:16:51.829Z,4.29
2023-02-14T09:19:24.684Z,4.33
2023-02-14T09:21:59.251Z,4.37
2023-02-14T09:24:33.107Z,4.44
2023-02-14T09:27:06.256Z,4.48
2023-02-14T09:29:39.446Z,4.48
2023-02-14T09:32:12.349Z,4.51
2023-02-14T09:34:45.479Z,4.49
2023-02-14T09:37:35.012Z,4.49
2023-02-14T09:40:09.557Z,4.58
2023-02-14T09:42:50.291Z,4.52
2023-02-14T09:45:26.848Z,4.52
2023-02-14T09:48:04.678Z,4.60
2023-02-14T09:50:44.270Z,4.62
2023-02-14T09:53:27.310Z,4.53
2023-02-14T09:56:08.500Z,4.52
2023-02-14T09:58:47.999Z,4.53
2023-02-14T10:01:28.167Z,4.61
2023-02-14T10:04:22.881Z,4.70
2023-02-14T10:07:00.446Z,4.64
2023-02-14T10:09:49.665Z,4.69
2023-02-14T10:12:28.730Z,4.70
2023-02-14T10:15:07.210Z,4.73
2023-02-14T10:17:47.550Z,4.75
2023-02-14T10:20:27.552Z,4.69
2023-02-14T10:23:07.862Z,4.73
2023-02-14T10:25:47.256Z,4.77
2023-02-14T10:28:24.690Z,4.82
2023-02-14T10:31:07.643Z,4.86
2023-02-14T10:33:44.100Z,4.87
2023-02-14T10:36:26.855Z,4.93
2023-02-14T10:39:05.360Z,5.02
2023-02-14T10:41:51.588Z,5.00
2023-02-14T10:44:38.596Z,5.03
2023-02-14T10:47:25.883Z,5.11
2023-02-14T10:50:08.932Z,5.22
2023-02-14T10:52:50.223Z,5.27
2023-02-14T10:55:32.924Z,5.37
2023-02-14T10:58:09.124Z,5.43
2023-02-14T11:00:49.514Z,5.45
2023-02-14T11:03:22.605Z,5.54
2023-02-14T11:05:55.622Z,5.65
2023-02-14T11:08:33.436Z,5.57
2023-02-14T11:11:14.034Z,5.55
2023-02-14T11:13:48.025Z,5.58
2023-02-14T11:16:33.317Z,5.65
2023-02-14T11:19:24.826Z,5.80
2023-02-14T11:21:59.460Z,5.86
2023-02-14T11:24:34.362Z,5.92
2023-02-14T11:27:17.612Z,5.89
2023-02-14T11:29:53.246Z,5.83
2023-02-14T11:32:28.843Z,5.87
2023-02-14T11:35:05.817Z,5.98
2023-02-14T11:37:45.966Z,6.04
2023-02-14T11:40:31.636Z,6.03
2023-02-14T11:43:21.611Z,6.05
2023-02-14T11:46:09.162Z,6.03
2023-02-14T11:48:55.774Z,5.98
2023-02-14T11:51:33.698Z,5.97
2023-02-14T11:54:07.495Z,5.82
2023-02-14T11:56:55.868Z,5.82
2023-02-14T11:59:37.253Z,5.89
2023-02-14T12:02:24.685Z,5.88
2023-02-14T12:05:00.254Z,5.90
2023-02-14T12:07:37.012Z,5.89
2023-02-14T12:10:30.209Z,5.84
2023-02-14T12:13:23.726Z,5.85
2023-02-14T12:15:59.307Z,5.87
2023-02-14T12:18:49.057Z,5.87
2023-02-14T12:21:50.166Z,5.84
2023-02-14T12:24:31.476Z,5.76
2023-02-14T12:27:20.359Z,5.71
2023-02-14T12:30:01.455Z,5.78
2023-02-14T12:32:35.761Z,5.83
2023-02-14T12:35:18.680Z,5.90
2023-02-14T12:38:04.797Z,5.98
2023-02-14T12:40:53.494Z,5.96
2023-02-14T12:43:44.160Z,5.80
2023-02-14T12:46:31.680Z,5.76
2023-02-14T12:49:28.737Z,5.75
2023-02-14T12:52:13.293Z,5.75
2023-02-14T12:54:59.282Z,5.78
2023-02-14T12:57:46.295Z,5.79
2023-02-14T13:00:32.103Z,5.69
2023-02-14T13:03:36.248Z,5.70
2023-02-14T13:06:18.066Z,5.61
2023-02-14T13:09:15.424Z,5.52
2023-02-14T13:11:59.675Z,5.46
2023-02-14T13:14:42.325Z,5.47
2023-02-14T13:17:22.573Z,5.40
2023-02-14T13:20:05.962Z,5.40
2023-02-14T13:22:39.811Z,5.41
2023-02-14T13:25:19.682Z,5.42
2023-02-14T13:27:53.184Z,5.40
2023-02-14T13:30:32.060Z,5.45
2023-02-14T13:33:23.521Z,5.50
2023-02-14T13:36:00.530Z,5.51
2023-02-14T13:38:34.746Z,5.52
2023-02-14T13:41:09.051Z,5.54
2023-02-14T13:43:53.499Z,5.55
2023-02-14T13:46:51.602Z,5.57
2023-02-14T13:49:32.785Z,5.55
2023-02-14T13:52:07.871Z,5.52
2023-02-14T13:54:48.162Z,5.48
2023-02-14T13:57:36.960Z,5.46
2023-02-14T14:00:39.935Z,5.41
2023-02-14T14:03:17.579Z,5.44
2023-02-14T14:06:03.244Z,5.44
2023-02-14T14:08:53.438Z,5.41
2023-02-14T14:12:02.496Z,5.40
2023-02-14T14:14:40.159Z,5.40
2023-02-14T14:17:29.894Z,5.39
2023-02-14T14:20:04.998Z,5.37
2023-02-14T14:22:57.623Z,5.38
2023-02-14T14:25:39.514Z,5.40
2023-02-14T14:28:20.392Z,5.38
2023-02-14T14:30:53.650Z,5.35
2023-02-14T14:33:32.504Z,5.36
2023-02-14T14:36:08.579Z,5.31
2023-02-14T14:38:51.137Z,5.32
2023-02-14T14:41:31.636Z,5.27
2023-02-14T14:44:16.707Z,5.26
2023-02-14T14:47:17.636Z,5.23
2023-02-14T14:50:08.851Z,5.16
2023-02-14T14:52:45.532Z,5.12
2023-02-14T14:55:27.614Z,5.07
2023-02-14T14:58:28.855Z,5.02
2023-02-14T15:01:01.923Z,5.00
2023-02-14T15:03:35.328Z,5.01
2023-02-14T15:06:22.056Z,5.00
2023-02-14T15:08:56.920Z,4.99
2023-02-14T15:11:47.973Z,4.98
2023-02-14T15:14:24.344Z,4.96
2023-02-14T15:16:59.726Z,4.94
2023-02-14T15:19:37.970Z,4.90
2023-02-14T15:22:21.796Z,4.90
2023-02-14T15:24:57.115Z,4.88
2023-02-14T15:27:32.766Z,4.83
2023-02-14T15:30:09.345Z,4.79
2023-02-14T15:32:42.876Z,4.82
2023-02-14T15:35:18.363Z,4.77
2023-02-14T15:37:52.075Z,4.70
2023-02-14T15:40:28.414Z,4.65
2023-02-14T15:43:06.517Z,4.63
2023-02-14T15:45:48.563Z,4.61
2023-02-14T15:48:28.003Z,4.62
2023-02-14T15:51:09.473Z,4.62
2023-02-14T15:54:01.128Z,4.59
2023-02-14T15:56:47.339Z,4.51
2023-02-14T15:59:26.871Z,4.50
2023-02-14T16:02:04.925Z,4.50
2023-02-14T16:04:50.796Z,4.53
2023-02-14T16:07:43.366Z,4.54
2023-02-14T16:10:31.648Z,4.53
2023-02-14T16:13:22.232Z,4.50
2023-02-14T16:16:08.389Z,4.48
2023-02-14T16:18:50.949Z,4.42
2023-02-14T16:21:29.843Z,4.42
2023-02-14T16:24:19.987Z,4.41
2023-02-14T16:27:07.370Z,4.32
2023-02-14T16:29:47.445Z,4.29
2023-02-14T16:32:27.881Z,4.26
2023-02-14T16:35:04.392Z,4.26
2023-02-14T16:37:45.732Z,4.22
2023-02-14T16:40:31.308Z,4.22
2023-02-14T16:43:08.599Z,4.23
2023-02-14T16:45:45.090Z,4.18
2023-02-14T16:48:22.685Z,4.14
2023-02-14T16:51:01.211Z,4.12
2023-02-14T16:53:38.604Z,4.12
2023-02-14T16:56:22.330Z,4.15
2023-02-14T16:59:00.608Z,4.16
2023-02-14T17:01:37.746Z,4.15
2023-02-14T17:04:14.277Z,4.16
2023-02-14T17:06:57.980Z,4.18
2023-02-14T17:09:40.214Z,4.16
2023-02-14T17:12:20.629Z,4.14
2023-02-14T17:15:00.762Z,4.13
2023-02-14T17:17:40.005Z,4.15
2023-02-14T17:20:20.473Z,4.13
2023-02-14T17:22:57.025Z,4.11
2023-02-14T17:25:37.010Z,4.12
2023-02-14T17:28:15.502Z,4.10
2023-02-14T17:30:54.906Z,4.06
2023-02-14T17:33:32.961Z,4.07
2023-02-14T17:36:15.017Z,4.05
2023-02-14T17:38:49.367Z,4.03
2023-02-14T17:41:23.900Z,4.00
2023-02-14T17:44:00.699Z,3.98
2023-02-14T17:46:34.172Z,3.96
2023-02-14T17:49:08.602Z,3.98
2023-02-14T17:51:41.437Z,3.91
2023-02-14T17:54:17.581Z,3.95
2023-02-14T17:56:50.893Z,3.92
2023-02-14T17:59:24.621Z,3.89
2023-02-14T18:01:57.850Z,3.92
2023-02-14T18:04:33.865Z,3.92
2023-02-14T18:07:06.905Z,3.94
2023-02-14T18:09:47.214Z,3.94
2023-02-14T18:12:21.040Z,3.93
2023-02-14T18:14:56.659Z,3.93
2023-02-14T18:17:30.027Z,3.93
2023-02-14T18:20:03.655Z,3.88
2023-02-14T18:22:37.354Z,3.88
2023-02-14T18:25:12.416Z,3.90
2023-02-14T18:27:45.084Z,3.89
2023-02-14T18:30:19.273Z,3.87
2023-02-14T18:32:52.802Z,3.87
2023-02-14T18:35:25.809Z,3.85
2023-02-14T18:37:58.921Z,3.77
2023-02-14T18:40:32.076Z,3.73
2023-02-14T18:43:04.113Z,3.73
2023-02-14T18:45:42.226Z,3.67
2023-02-14T18:48:15.077Z,3.73
2023-02-14T18:50:48.199Z,3.73
2023-02-14T18:53:23.250Z,3.73
2023-02-14T18:56:01.657Z,3.72
2023-02-14T18:58:38.602Z,3.75
2023-02-14T19:01:15.459Z,3.70
2023-02-14T19:03:51.154Z,3.71
2023-02-14T19:06:27.331Z,3.63
2023-02-14T19:09:00.512Z,3.61
2023-02-14T19:11:34.758Z,3.61
2023-02-14T19:17:34.174Z,3.64
2023-02-14T19:20:18.560Z,3.64
2023-02-14T19:22:53.020Z,3.66
2023-02-14T19:25:34.396Z,3.64
2023-02-14T19:28:16.624Z,3.64
2023-02-14T19:30:59.806Z,3.61
2023-02-14T19:33:42.037Z,3.61
2023-02-14T19:36:29.795Z,3.64
2023-02-14T19:39:06.231Z,3.66
2023-02-14T19:41:41.387Z,3.65
2023-02-14T19:44:24.132Z,3.63
2023-02-14T19:47:12.512Z,3.61
2023-02-14T19:50:05.914Z,3.53
2023-02-14T19:52:44.177Z,3.47
2023-02-14T19:55:29.337Z,3.45
2023-02-14T19:58:05.909Z,3.46
2023-02-14T20:00:38.872Z,3.45
2023-02-14T20:03:12.496Z,3.48
2023-02-14T20:05:45.267Z,3.48
2023-02-14T20:08:19.260Z,3.44
2023-02-14T20:10:52.169Z,3.41
2023-02-14T20:13:25.974Z,3.39
2023-02-14T20:16:00.684Z,3.38
2023-02-14T20:18:36.690Z,3.33
2023-02-14T20:21:17.965Z,3.34
2023-02-14T20:23:54.539Z,3.30
2023-02-14T20:26:28.418Z,3.27
2023-02-14T20:29:04.381Z,3.33
2023-02-14T20:31:41.811Z,3.35
2023-02-14T20:34:24.681Z,3.38
2023-02-14T20:36:59.584Z,3.36
2023-02-14T20:39:38.175Z,3.32
2023-02-14T20:42:11.340Z,3.35
2023-02-14T20:44:45.652Z,3.31
2023-02-14T20:47:18.997Z,3.32
2023-02-14T20:49:51.791Z,3.31
2023-02-14T20:52:24.850Z,3.27
2023-02-14T20:54:57.940Z,3.24
2023-02-14T20:57:32.272Z,3.24
2023-02-14T21:00:06.480Z,3.24
2023-02-14T21:02:39.580Z,3.26
2023-02-14T21:05:12.393Z,3.29
2023-02-14T21:07:45.569Z,3.28
2023-02-14T21:10:18.420Z,3.25
2023-02-14T21:12:54.190Z,3.24
2023-02-14T21:15:27.991Z,3.21
2023-02-14T21:18:02.258Z,3.22
2023-02-14T21:20:36.966Z,3.25
2023-02-14T21:23:10.832Z,3.26
2023-02-14T21:25:44.133Z,3.27
2023-02-14T21:28:18.444Z,3.30
2023-02-14T21:30:51.502Z,3.31
2023-02-14T21:33:25.675Z,3.31
2023-02-14T21:35:59.517Z,3.30
2023-02-14T21:38:31.076Z,3.32
2023-02-14T21:41:09.604Z,3.27
2023-02-14T21:43:43.871Z,3.28
2023-02-14T21:46:20.231Z,3.29
2023-02-14T21:49:10.130Z,3.25
2023-02-14T21:51:43.630Z,3.22
2023-02-14T21:54:18.449Z,3.22
2023-02-14T21:56:51.396Z,3.23
2023-02-14T21:59:24.357Z,3.23
2023-02-14T22:01:59.196Z,3.22
2023-02-14T22:04:31.886Z,3.20
2023-02-14T22:07:04.684Z,3.22
2023-02-14T22:09:39.165Z,3.23
2023-02-14T22:12:12.046Z,3.22
2023-02-14T22:14:45.311Z,3.21
2023-02-14T22:17:18.197Z,3.17
2023-02-14T22:19:50.982Z,3.11
2023-02-14T22:22:23.934Z,3.08
2023-02-14T22:24:57.114Z,3.10
2023-02-14T22:27:30.590Z,3.11
2023-02-14T22:30:04.947Z,3.09
2023-02-14T22:32:37.784Z,3.03
2023-02-14T22:35:11.394Z,3.04
2023-02-14T22:37:44.472Z,3.01
2023-02-14T22:40:17.521Z,3.01
2023-02-14T22:42:50.351Z,2.96
2023-02-14T22:45:23.671Z,2.97
2023-02-14T22:47:56.483Z,3.00
2023-02-14T22:50:29.382Z,3.02
2023-02-14T22:53:02.181Z,2.99
2023-02-14T22:55:35.359Z,3.01
2023-02-14T22:58:09.655Z,3.01
2023-02-14T23:00:42.521Z,3.00
2023-02-14T23:03:15.281Z,2.95
2023-02-14T23:05:48.332Z,2.87
2023-02-14T23:08:21.030Z,2.88
2023-02-14T23:10:53.806Z,2.88
2023-02-14T23:13:44.179Z,2.90
2023-02-14T23:16:33.858Z,2.89
2023-02-14T23:19:24.349Z,2.87
2023-02-14T23:21:57.469Z,2.91
2023-02-14T23:24:30.714Z,2.92
2023-02-14T23:27:05.299Z,2.92
2023-02-14T23:29:38.568Z,2.93
2023-02-14T23:32:11.945Z,2.96
2023-02-14T23:34:43.835Z,2.95
2023-02-14T23:37:16.721Z,2.85
2023-02-14T23:39:49.426Z,2.81
2023-02-14T23:42:23.043Z,2.86
2023-02-14T23:45:15.933Z,2.87
2023-02-14T23:47:50.381Z,2.88
2023-02-14T23:50:23.076Z,2.92
2023-02-14T23:52:56.318Z,2.92
2023-02-14T23:55:29.182Z,2.91
2023-02-14T23:58:02.352Z,2.89
